Time;durP1;ratioP1;P1;durP2;ratioP2;P2;SDS_P1;SDS_P2;PMS_P1;PMS_P2;Temp;Humidity;BMP_temperature;BMP_pressure;BME280_temperature;BME280_humidity;BME280_pressure;Samples;Min_cycle;Max_cycle;Signal;HPM_P1;HPM_P2
2021/04/17 03:01:05;;;;;;;19.35;12.23;;;0.80;99.90;;;;;;5494832;23;94531;-86
2021/04/17 03:03:30;;;;;;;18.38;12.15;;;0.80;99.90;;;;;;4849655;29;92994;-86
2021/04/17 03:05:56;;;;;;;20.13;12.77;;;0.80;99.90;;;;;;4846895;29;91328;-86
2021/04/17 03:08:22;;;;;;;19.88;12.23;;;0.80;99.90;;;;;;4850888;29;91349;-86
2021/04/17 03:10:48;;;;;;;19.30;12.23;;;0.80;99.90;;;;;;4864380;29;92276;-86
2021/04/17 03:13:14;;;;;;;18.88;11.98;;;0.80;99.90;;;;;;4855200;29;91592;-87
2021/04/17 03:15:40;;;;;;;18.17;12.18;;;0.70;99.90;;;;;;4854172;29;92056;-87
2021/04/17 03:18:06;;;;;;;17.42;12.23;;;0.70;99.90;;;;;;4833713;29;91786;-87
2021/04/17 03:20:31;;;;;;;18.08;13.27;;;0.70;99.90;;;;;;4849803;29;91437;-86
2021/04/17 03:22:57;;;;;;;20.83;13.00;;;0.70;99.90;;;;;;4849553;29;92252;-87
2021/04/17 03:25:24;;;;;;;20.40;13.27;;;;;;;;;;4833104;29;91975;-87
2021/04/17 03:27:49;;;;;;;17.70;11.80;;;0.70;99.90;;;;;;4844369;29;92991;-86
2021/04/17 03:30:17;;;;;;;19.58;13.07;;;0.70;99.90;;;;;;4832617;29;95204;-86
2021/04/17 03:32:44;;;;;;;22.00;13.85;;;0.70;99.90;;;;;;4831405;29;93784;-87
2021/04/17 03:35:12;;;;;;;20.75;13.63;;;0.70;99.90;;;;;;4833113;29;92052;-87
2021/04/17 03:37:40;;;;;;;26.98;16.00;;;0.70;99.90;;;;;;4849073;29;92033;-87
2021/04/17 03:40:08;;;;;;;20.70;13.50;;;0.60;99.90;;;;;;4849234;29;91997;-86
2021/04/17 03:42:34;;;;;;;27.40;15.35;;;0.50;99.90;;;;;;4848718;29;91879;-87
2021/04/17 03:45:00;;;;;;;23.63;15.10;;;0.50;99.90;;;;;;4849820;29;91009;-87
2021/04/17 03:47:26;;;;;;;25.15;14.77;;;0.50;99.90;;;;;;4832860;29;91676;-87
2021/04/17 03:49:52;;;;;;;25.25;15.25;;;0.50;99.90;;;;;;4849438;29;92703;-87
2021/04/17 03:52:18;;;;;;;25.80;15.50;;;0.50;99.90;;;;;;4848143;29;93108;-86
2021/04/17 03:54:43;;;;;;;26.80;15.27;;;0.50;99.90;;;;;;4849502;29;91639;-87
2021/04/17 03:57:09;;;;;;;22.13;13.85;;;0.40;99.90;;;;;;4846179;29;92463;-86
2021/04/17 03:59:35;;;;;;;21.45;13.48;;;0.40;99.90;;;;;;4848301;29;92016;-86
2021/04/17 04:02:01;;;;;;;21.15;14.00;;;0.40;99.90;;;;;;4839388;29;92077;-87
2021/04/17 04:04:27;;;;;;;21.02;12.85;;;;;;;;;;4812426;29;92159;-86
2021/04/17 04:06:53;;;;;;;19.08;13.35;;;0.40;99.90;;;;;;4827608;29;92143;-86
2021/04/17 04:09:19;;;;;;;21.67;13.48;;;0.40;99.90;;;;;;4833748;29;91507;-86
2021/04/17 04:11:53;;;;;;;20.05;13.45;;;0.40;99.90;;;;;;4830921;29;92081;-86
2021/04/17 04:14:19;;;;;;;22.25;12.95;;;0.30;99.90;;;;;;4831170;29;92005;-86
2021/04/17 04:16:45;;;;;;;25.02;13.88;;;0.30;99.90;;;;;;4825832;29;92966;-87
2021/04/17 04:19:10;;;;;;;20.33;13.60;;;0.30;99.90;;;;;;4840488;29;92430;-86
2021/04/17 04:21:36;;;;;;;21.35;13.93;;;0.30;99.90;;;;;;4835449;29;92949;-86
2021/04/17 04:24:04;;;;;;;26.08;15.32;;;0.30;99.90;;;;;;4834061;29;92004;-88
2021/04/17 04:26:29;;;;;;;26.98;16.23;;;0.20;99.90;;;;;;4841848;29;92057;-87
2021/04/17 04:28:56;;;;;;;26.33;16.15;;;0.20;99.90;;;;;;4839279;29;94206;-88
2021/04/17 04:31:23;;;;;;;24.30;15.38;;;0.20;99.90;;;;;;4815003;29;94097;-88
2021/04/17 04:33:50;;;;;;;27.83;17.23;;;0.20;99.90;;;;;;4816395;29;90754;-87
2021/04/17 04:36:16;;;;;;;28.02;16.35;;;0.20;99.90;;;;;;4825236;29;91973;-87
2021/04/17 04:38:42;;;;;;;28.05;16.00;;;0.20;99.90;;;;;;4827017;29;95895;-88
2021/04/17 04:41:08;;;;;;;25.20;15.05;;;;;;;;;;4810639;29;95740;-87
2021/04/17 04:43:33;;;;;;;23.25;13.60;;;0.30;99.90;;;;;;4831155;29;91919;-88
2021/04/17 04:45:59;;;;;;;23.13;14.52;;;0.20;99.90;;;;;;4828814;29;91824;-88
2021/04/17 04:48:25;;;;;;;26.83;15.98;;;0.30;99.90;;;;;;4828457;29;92046;-87
2021/04/17 04:50:51;;;;;;;24.92;15.32;;;;;;;;;;4825893;29;91983;-88
2021/04/17 04:53:17;;;;;;;25.23;16.25;;;0.30;99.90;;;;;;4820976;29;91997;-87
2021/04/17 04:55:43;;;;;;;25.38;16.08;;;0.30;99.90;;;;;;4824458;29;92772;-88
2021/04/17 04:58:08;;;;;;;25.90;16.38;;;0.30;99.90;;;;;;4820297;29;92172;-87
2021/04/17 05:00:35;;;;;;;24.25;15.23;;;0.40;99.90;;;;;;4825326;29;92141;-88
2021/04/17 05:03:01;;;;;;;22.30;14.85;;;0.40;99.90;;;;;;4827332;29;91968;-88
2021/04/17 05:05:26;;;;;;;25.25;15.63;;;0.50;99.90;;;;;;4826594;29;92956;-88
2021/04/17 05:07:52;;;;;;;24.00;14.80;;;0.60;99.90;;;;;;4818693;29;92775;-88
2021/04/17 05:10:18;;;;;;;22.13;14.85;;;0.70;99.90;;;;;;4823596;29;92513;-88
2021/04/17 05:12:44;;;;;;;24.38;15.07;;;;;;;;;;4821773;29;92213;-87
2021/04/17 05:15:10;;;;;;;22.73;14.95;;;0.80;99.90;;;;;;4813606;29;92000;-87
2021/04/17 05:17:38;;;;;;;24.85;15.38;;;0.90;99.90;;;;;;4827904;29;92422;-87
2021/04/17 05:20:05;;;;;;;22.73;15.80;;;1.10;99.90;;;;;;4828114;29;92629;-87
2021/04/17 05:22:30;;;;;;;23.23;15.02;;;1.20;99.90;;;;;;4827720;29;91165;-87
2021/04/17 05:24:56;;;;;;;24.25;14.95;;;1.20;99.90;;;;;;4812139;29;91972;-88
2021/04/17 05:27:22;;;;;;;26.40;15.75;;;1.40;99.90;;;;;;4826972;29;92644;-88
2021/04/17 05:29:47;;;;;;;25.55;15.45;;;1.50;99.90;;;;;;4811255;29;93597;-88
2021/04/17 05:32:13;;;;;;;23.20;14.82;;;1.60;99.90;;;;;;4827843;29;91869;-88
2021/04/17 05:34:39;;;;;;;22.08;15.02;;;1.70;99.90;;;;;;4820819;29;92034;-89
2021/04/17 05:37:04;;;;;;;28.67;17.55;;;1.90;99.90;;;;;;4827192;29;92763;-88
2021/04/17 05:39:31;;;;;;;40.45;19.55;;;1.90;99.90;;;;;;4828822;29;92644;-88
2021/04/17 05:41:56;;;;;;;30.90;17.65;;;2.00;99.90;;;;;;4824947;29;92850;-88
2021/04/17 05:44:22;;;;;;;29.58;16.85;;;2.10;99.90;;;;;;4827985;29;92070;-88
2021/04/17 05:46:52;;;;;;;34.42;17.60;;;2.30;99.90;;;;;;4831387;29;91676;-88
2021/04/17 05:49:18;;;;;;;31.23;18.40;;;2.40;99.90;;;;;;4844972;29;92170;-88
2021/04/17 05:51:44;;;;;;;37.22;19.85;;;2.50;99.90;;;;;;4821229;29;91808;-88
2021/04/17 05:54:11;;;;;;;32.85;18.90;;;2.60;99.90;;;;;;4827216;29;92963;-88
2021/04/17 05:56:37;;;;;;;28.45;17.30;;;;;;;;;;4833200;29;94531;-87
2021/04/17 05:59:04;;;;;;;25.73;16.17;;;2.90;99.90;;;;;;4829745;29;93127;-87
2021/04/17 06:01:31;;;;;;;23.50;15.20;;;2.90;99.90;;;;;;4826604;29;92035;-87
2021/04/17 06:03:56;;;;;;;24.00;15.52;;;3.00;99.90;;;;;;4826562;29;91885;-86
2021/04/17 06:06:24;;;;;;;27.15;15.20;;;3.10;99.90;;;;;;4827549;29;91893;-86
2021/04/17 06:08:50;;;;;;;25.67;16.00;;;3.20;99.90;;;;;;4825971;29;92142;-86
2021/04/17 06:11:16;;;;;;;26.35;16.67;;;3.40;99.90;;;;;;4824736;29;91301;-86
2021/04/17 06:13:42;;;;;;;23.88;15.15;;;3.50;99.90;;;;;;4834776;29;91989;-85
2021/04/17 06:16:09;;;;;;;25.67;15.88;;;;;;;;;;4828645;29;94245;-87
2021/04/17 06:18:41;;;;;;;24.55;15.35;;;3.80;99.90;;;;;;4821012;29;93342;-86
2021/04/17 06:21:07;;;;;;;28.08;16.42;;;;;;;;;;4833966;29;91655;-85
2021/04/17 06:23:36;;;;;;;25.08;15.25;;;4.10;99.90;;;;;;4818784;29;92069;-87
2021/04/17 06:26:02;;;;;;;25.48;16.23;;;;;;;;;;4820284;29;94979;-85
2021/04/17 06:28:29;;;;;;;25.23;15.15;;;4.40;99.90;;;;;;4842334;29;91841;-85
2021/04/17 06:30:55;;;;;;;25.42;15.82;;;4.50;99.90;;;;;;4836557;29;92000;-86
2021/04/17 06:33:21;;;;;;;27.88;16.88;;;4.70;99.90;;;;;;4837689;29;91822;-85
2021/04/17 06:35:47;;;;;;;28.27;16.48;;;4.80;99.90;;;;;;4838443;29;91892;-85
2021/04/17 06:38:15;;;;;;;27.73;16.85;;;4.80;99.90;;;;;;4839090;29;92468;-85
2021/04/17 06:40:40;;;;;;;24.90;16.15;;;4.80;99.90;;;;;;4831397;29;91765;-86
2021/04/17 06:43:06;;;;;;;25.90;16.67;;;4.90;99.90;;;;;;4832575;29;93108;-88
2021/04/17 06:45:35;;;;;;;30.25;17.73;;;5.20;99.90;;;;;;4824743;29;93722;-87
2021/04/17 06:48:09;;;;;;;27.02;15.90;;;5.30;99.90;;;;;;4837418;29;93707;-87
2021/04/17 06:50:36;;;;;;;26.17;16.73;;;5.40;99.90;;;;;;4797090;29;91973;-86
2021/04/17 06:53:06;;;;;;;22.02;15.48;;;5.50;99.90;;;;;;4827643;29;91831;-85
2021/04/17 06:55:32;;;;;;;24.70;16.27;;;5.60;99.90;;;;;;4841999;29;92029;-86
2021/04/17 06:57:59;;;;;;;25.65;16.88;;;5.80;99.90;;;;;;4822574;29;93797;-86
2021/04/17 07:00:25;;;;;;;24.80;16.00;;;6.10;99.90;;;;;;4834203;29;91363;-86
2021/04/17 07:02:52;;;;;;;25.60;16.55;;;6.10;99.90;;;;;;4836537;29;92204;-84
2021/04/17 07:05:18;;;;;;;23.33;15.52;;;6.30;99.90;;;;;;4833552;29;92569;-84
2021/04/17 07:07:43;;;;;;;21.00;14.60;;;6.50;99.90;;;;;;4836595;29;93048;-89
2021/04/17 07:10:10;;;;;;;23.88;15.73;;;6.70;99.90;;;;;;4827979;29;92013;-85
2021/04/17 07:12:35;;;;;;;24.30;16.08;;;7.10;99.90;;;;;;4812105;29;91910;-87
2021/04/17 07:15:07;;;;;;;21.00;15.02;;;7.50;99.90;;;;;;4835967;29;91988;-85
2021/04/17 07:17:36;;;;;;;21.67;15.27;;;8.90;97.70;;;;;;4835995;29;93454;-89
2021/04/17 07:20:17;;;;;;;20.02;14.05;;;8.80;97.80;;;;;;4818774;29;93360;-88
2021/04/17 07:22:43;;;;;;;20.13;15.10;;;10.30;91.90;;;;;;4796821;29;91673;-85
2021/04/17 07:25:09;;;;;;;19.52;14.98;;;;;;;;;;4830422;29;91995;-89
2021/04/17 07:27:52;;;;;;;21.23;15.63;;;13.30;72.20;;;;;;4815960;29;94099;-90
2021/04/17 07:30:23;;;;;;;19.35;14.07;;;15.10;59.70;;;;;;4833266;29;91789;-88
2021/04/17 07:33:06;;;;;;;19.80;15.27;;;16.30;57.20;;;;;;4829909;29;92603;-89
2021/04/17 07:35:40;;;;;;;18.08;14.52;;;17.50;51.40;;;;;;4830449;29;94025;-90
2021/04/17 07:38:23;;;;;;;20.77;16.50;;;19.60;43.80;;;;;;4815190;29;92650;-91
2021/04/17 07:41:04;;;;;;;17.35;14.73;;;19.70;43.10;;;;;;4814796;29;91688;-92
2021/04/17 07:43:53;;;;;;;17.30;15.50;;;20.60;40.80;;;;;;4828206;29;91925;-89
2021/04/17 07:46:42;;;;;;;19.17;16.70;;;22.00;37.40;;;;;;4814539;29;92857;-89
2021/04/17 07:49:21;;;;;;;20.55;18.35;;;21.90;37.70;;;;;;4833630;29;92424;-92
2021/04/17 07:52:19;;;;;;;18.45;15.98;;;22.50;36.60;;;;;;4813111;29;91331;-89
2021/04/17 07:55:00;;;;;;;18.88;16.42;;;23.30;35.20;;;;;;4803060;29;92137;-88
2021/04/17 07:57:35;;;;;;;27.17;24.98;;;24.10;34.70;;;;;;4830898;29;92476;-89
2021/04/17 08:00:03;;;;;;;17.38;15.60;;;24.90;34.30;;;;;;4825425;29;93166;-88
2021/04/17 08:02:31;;;;;;;16.83;15.13;;;25.50;33.40;;;;;;4829306;29;92023;-86
2021/04/17 08:04:59;;;;;;;17.80;16.00;;;26.30;31.90;;;;;;4835021;29;92455;-86
2021/04/17 08:07:26;;;;;;;18.08;16.20;;;26.70;31.20;;;;;;4812650;29;92729;-87
2021/04/17 08:09:54;;;;;;;16.63;14.95;;;27.40;31.20;;;;;;4830177;29;93573;-85
2021/04/17 08:12:20;;;;;;;16.67;15.05;;;27.60;29.90;;;;;;4809405;29;92634;-86
2021/04/17 08:14:46;;;;;;;15.75;14.25;;;28.10;29.90;;;;;;4834369;29;91959;-85
2021/04/17 08:17:13;;;;;;;17.83;15.82;;;28.60;29.00;;;;;;4828563;29;92068;-86
2021/04/17 08:19:39;;;;;;;17.88;16.27;;;28.80;29.20;;;;;;4830449;29;92062;-83
2021/04/17 08:22:05;;;;;;;18.48;16.75;;;29.10;28.00;;;;;;4837381;29;92256;-87
2021/04/17 08:24:31;;;;;;;17.92;16.35;;;28.90;28.10;;;;;;4823819;29;93091;-84
2021/04/17 08:26:59;;;;;;;18.73;16.98;;;28.60;27.70;;;;;;4832357;29;92687;-83
2021/04/17 08:29:51;;;;;;;17.35;15.75;;;27.90;28.20;;;;;;4829949;29;93643;-84
2021/04/17 08:32:37;;;;;;;18.75;17.25;;;28.50;27.80;;;;;;4807407;29;91650;-84
2021/04/17 08:35:02;;;;;;;18.52;16.83;;;28.40;27.30;;;;;;4826520;29;92179;-84
2021/04/17 08:37:30;;;;;;;18.52;16.80;;;;;;;;;;4812896;29;93549;-84
2021/04/17 08:39:57;;;;;;;17.02;15.73;;;28.90;27.90;;;;;;4839801;29;91891;-86
2021/04/17 08:42:45;;;;;;;18.33;16.92;;;30.10;25.70;;;;;;4829019;29;91400;-86
2021/04/17 08:45:17;;;;;;;18.30;16.90;;;30.20;26.10;;;;;;4830338;29;91969;-86
2021/04/17 08:47:48;;;;;;;15.40;14.10;;;30.90;26.70;;;;;;4813246;29;92052;-85
2021/04/17 08:50:40;;;;;;;18.60;17.00;;;31.90;25.50;;;;;;4831828;29;92987;-86
2021/04/17 08:53:16;;;;;;;17.58;15.98;;;32.10;25.20;;;;;;4814791;29;92036;-85
2021/04/17 08:55:45;;;;;;;16.10;14.77;;;31.50;25.60;;;;;;4828861;29;92108;-85
2021/04/17 08:58:14;;;;;;;17.42;15.88;;;31.60;25.30;;;;;;4831082;29;92338;-85
2021/04/17 09:00:42;;;;;;;16.73;15.23;;;32.10;25.00;;;;;;4833647;29;92302;-85
2021/04/17 09:03:08;;;;;;;17.00;15.55;;;32.40;25.70;;;;;;4829959;29;92092;-85
2021/04/17 09:05:45;;;;;;;17.67;16.13;;;32.20;25.00;;;;;;4829392;29;92096;-85
2021/04/17 09:08:14;;;;;;;17.02;15.52;;;32.80;24.30;;;;;;4832363;29;91733;-85
2021/04/17 09:10:46;;;;;;;18.23;16.67;;;32.80;24.80;;;;;;5113353;27;81525;-84
2021/04/17 09:13:17;;;;;;;16.45;15.07;;;34.70;23.60;;;;;;5102499;27;82102;-84
2021/04/17 09:15:50;;;;;;;18.80;16.95;;;34.80;23.90;;;;;;5097544;27;82500;-84
2021/04/17 09:18:34;;;;;;;17.33;15.82;;;33.90;23.70;;;;;;5102889;27;82665;-84
2021/04/17 09:21:15;;;;;;;16.90;15.30;;;33.20;24.00;;;;;;5084617;27;85011;-84
2021/04/17 09:23:44;;;;;;;16.10;14.77;;;33.70;24.00;;;;;;5099277;27;83017;-84
2021/04/17 09:26:32;;;;;;;19.48;17.98;;;33.00;24.10;;;;;;5104146;27;82639;-84
2021/04/17 09:29:00;;;;;;;18.23;16.55;;;33.00;24.00;;;;;;5096218;27;83191;-84
2021/04/17 09:31:27;;;;;;;17.05;15.48;;;34.00;24.20;;;;;;5089423;27;82508;-85
2021/04/17 09:34:01;;;;;;;17.10;15.70;;;34.80;23.90;;;;;;5088511;27;85004;-85
2021/04/17 09:36:26;;;;;;;16.98;15.50;;;35.30;23.70;;;;;;5103096;27;83376;-85
2021/04/17 09:38:53;;;;;;;14.25;13.15;;;35.40;23.60;;;;;;5104013;27;82601;-85
2021/04/17 09:41:19;;;;;;;16.02;14.82;;;36.00;23.40;;;;;;5109916;27;82682;-84
2021/04/17 09:43:56;;;;;;;16.73;15.32;;;36.00;23.10;;;;;;5084652;27;85774;-85
2021/04/17 09:46:23;;;;;;;15.88;14.68;;;36.00;22.80;;;;;;5114933;27;82245;-85
2021/04/17 09:48:49;;;;;;;19.20;17.70;;;36.30;23.40;;;;;;5115806;27;82238;-85
2021/04/17 09:51:25;;;;;;;20.20;18.70;;;35.70;23.30;;;;;;5118377;27;82264;-85
2021/04/17 09:53:53;;;;;;;19.83;18.23;;;35.70;23.40;;;;;;5112462;27;82953;-85
2021/04/17 09:56:27;;;;;;;18.65;17.15;;;35.90;23.10;;;;;;5100803;27;83384;-85
2021/04/17 09:58:55;;;;;;;18.80;17.40;;;36.50;23.10;;;;;;5099683;27;82579;-85
2021/04/17 10:01:21;;;;;;;20.00;18.38;;;36.60;23.30;;;;;;5095107;27;82548;-85
2021/04/17 10:03:57;;;;;;;19.73;18.13;;;36.30;23.40;;;;;;5084437;27;82853;-86
2021/04/17 10:06:33;;;;;;;19.15;17.73;;;36.70;22.60;;;;;;5085402;27;82584;-85
2021/04/17 10:09:10;;;;;;;21.10;19.50;;;36.40;22.70;;;;;;5070823;27;83892;-85
2021/04/17 10:11:38;;;;;;;18.15;16.60;;;35.10;23.20;;;;;;5061362;27;82606;-85
2021/04/17 10:14:05;;;;;;;19.05;17.50;;;33.90;23.30;;;;;;5064356;27;83372;-84
2021/04/17 10:16:35;;;;;;;20.23;18.63;;;33.00;24.50;;;;;;5061511;27;82736;-85
2021/04/17 10:19:04;;;;;;;20.65;18.95;;;33.80;23.90;;;;;;5074810;27;82376;-85
2021/04/17 10:21:33;;;;;;;18.90;17.42;;;34.00;23.60;;;;;;5052563;28;82502;-85
2021/04/17 10:24:25;;;;;;;16.75;15.35;;;34.00;23.70;;;;;;5061956;27;82964;-85
2021/04/17 10:26:52;;;;;;;19.05;17.55;;;34.80;23.10;;;;;;5072967;27;82582;-85
2021/04/17 10:29:19;;;;;;;19.75;18.20;;;34.70;23.40;;;;;;5062909;27;82744;-85
2021/04/17 10:31:46;;;;;;;19.00;17.50;;;33.70;23.60;;;;;;5059352;28;82507;-85
2021/04/17 10:34:21;;;;;;;18.33;16.80;;;33.10;23.80;;;;;;5071178;27;83216;-85
2021/04/17 10:37:02;;;;;;;17.17;15.77;;;32.90;24.00;;;;;;5061038;27;82456;-84
2021/04/17 10:39:29;;;;;;;19.45;17.95;;;31.60;24.70;;;;;;5054050;27;82693;-84
2021/04/17 10:42:03;;;;;;;19.00;17.42;;;30.20;25.00;;;;;;5044948;28;82507;-85
2021/04/17 10:44:30;;;;;;;20.13;18.42;;;28.60;26.00;;;;;;5043756;28;83475;-86
2021/04/17 10:46:57;;;;;;;21.00;19.20;;;26.50;26.60;;;;;;5047903;28;82754;-84
2021/04/17 10:49:37;;;;;;;20.85;19.05;;;25.20;27.00;;;;;;5058383;27;81972;-86
2021/04/17 10:52:23;;;;;;;21.67;19.65;;;22.90;29.20;;;;;;5056159;28;82625;-86
2021/04/17 10:54:53;;;;;;;20.02;18.13;;;21.90;30.20;;;;;;5065020;27;82449;-86
2021/04/17 10:57:18;;;;;;;19.07;17.27;;;22.70;30.00;;;;;;5063794;27;82644;-86
2021/04/17 10:59:58;;;;;;;19.77;17.85;;;22.80;30.00;;;;;;5060471;27;82680;-86
2021/04/17 11:02:35;;;;;;;19.25;17.55;;;24.50;29.20;;;;;;5065380;27;82840;-86
2021/04/17 11:05:04;;;;;;;20.40;18.48;;;26.10;28.30;;;;;;5045621;27;82494;-87
2021/04/17 11:07:34;;;;;;;20.73;18.83;;;27.00;27.40;;;;;;5042338;28;82769;-88
2021/04/17 11:10:05;;;;;;;19.88;17.88;;;28.50;26.80;;;;;;5045200;27;83125;-86
2021/04/17 11:12:32;;;;;;;79.10;35.88;;;29.50;26.20;;;;;;5045083;27;83144;-88
2021/04/17 11:15:20;;;;;;;37.53;22.83;;;29.70;26.00;;;;;;5047693;27;83535;-86
2021/04/17 11:18:12;;;;;;;20.55;18.45;;;31.10;25.50;;;;;;5057192;27;82862;-86
2021/04/17 11:20:52;;;;;;;20.30;18.38;;;31.60;24.90;;;;;;5050236;27;82441;-87
2021/04/17 11:23:37;;;;;;;20.30;18.50;;;30.80;24.90;;;;;;5046921;27;83708;-88
2021/04/17 11:26:05;;;;;;;18.52;16.95;;;30.20;25.90;;;;;;5053442;27;83971;-86
2021/04/17 11:28:32;;;;;;;18.45;16.88;;;30.40;25.80;;;;;;5045426;27;83159;-87
2021/04/17 11:30:58;;;;;;;19.70;18.10;;;30.00;25.60;;;;;;5048750;28;82690;-87
2021/04/17 11:33:24;;;;;;;17.05;15.57;;;29.30;25.70;;;;;;5053147;27;82479;-87
2021/04/17 11:35:50;;;;;;;18.75;17.05;;;;;;;;;;5036332;28;82469;-87
2021/04/17 11:38:16;;;;;;;20.55;18.67;;;28.40;26.60;;;;;;5044038;28;82444;-88
2021/04/17 11:40:42;;;;;;;16.85;15.45;;;27.60;26.50;;;;;;5049153;28;82603;-86
2021/04/17 11:43:08;;;;;;;19.17;17.55;;;27.30;27.00;;;;;;5048389;28;82820;-89
2021/04/17 11:45:34;;;;;;;19.45;17.65;;;;;;;;;;5040741;27;83309;-88
2021/04/17 11:48:00;;;;;;;17.98;16.38;;;26.20;27.50;;;;;;5054654;27;82640;-90
2021/04/17 11:50:26;;;;;;;19.23;17.60;;;26.30;27.40;;;;;;5045633;28;82529;-89
2021/04/17 11:52:53;;;;;;;18.40;16.80;;;25.40;28.10;;;;;;5045797;28;82336;-88
2021/04/17 11:55:18;;;;;;;19.60;17.80;;;25.80;27.60;;;;;;5029406;28;82474;-89
2021/04/17 11:57:44;;;;;;;18.83;17.23;;;25.30;28.10;;;;;;5049831;27;82932;-88
2021/04/17 12:00:10;;;;;;;16.95;15.55;;;25.20;27.90;;;;;;5051594;27;83681;-88
2021/04/17 12:02:36;;;;;;;18.08;16.48;;;26.50;27.60;;;;;;5044260;27;82837;-89
2021/04/17 12:05:02;;;;;;;18.13;16.52;;;26.10;27.50;;;;;;5045858;28;83414;-87
2021/04/17 12:07:28;;;;;;;19.20;17.35;;;25.90;28.10;;;;;;5049941;27;84277;-87
2021/04/17 12:09:53;;;;;;;19.23;17.52;;;25.10;28.30;;;;;;5029883;27;82871;-88
2021/04/17 12:12:20;;;;;;;19.13;17.35;;;24.50;28.90;;;;;;5038935;27;82753;-88
2021/04/17 12:14:47;;;;;;;19.38;17.58;;;23.60;29.60;;;;;;5047004;27;83790;-87
2021/04/17 12:17:13;;;;;;;18.52;16.70;;;24.20;29.40;;;;;;5044668;28;82738;-88
2021/04/17 12:19:39;;;;;;;17.50;16.00;;;24.90;28.80;;;;;;5045896;27;84465;-87
2021/04/17 12:22:04;;;;;;;16.83;15.50;;;24.60;29.50;;;;;;5039108;27;83209;-88
2021/04/17 12:24:30;;;;;;;16.08;14.65;;;24.40;29.00;;;;;;5042934;27;83428;-88
2021/04/17 12:26:56;;;;;;;16.35;14.93;;;;;;;;;;5046718;27;83696;-88
2021/04/17 12:29:22;;;;;;;17.52;15.93;;;24.30;28.50;;;;;;5045097;28;82717;-88
2021/04/17 12:31:48;;;;;;;15.70;14.40;;;24.20;28.80;;;;;;5019730;28;82763;-87
2021/04/17 12:34:15;;;;;;;17.15;15.65;;;22.90;30.40;;;;;;5039841;27;82678;-87
2021/04/17 12:36:41;;;;;;;16.17;14.77;;;21.90;32.90;;;;;;5042360;28;83174;-86
2021/04/17 12:39:06;;;;;;;17.55;16.05;;;21.70;32.00;;;;;;5037978;28;82852;-87
2021/04/17 12:41:34;;;;;;;44.05;37.22;;;21.60;32.00;;;;;;5040112;28;83871;-87
2021/04/17 12:43:59;;;;;;;179.55;110.32;;;21.50;32.60;;;;;;5040780;27;82898;-87
2021/04/17 12:46:25;;;;;;;31.45;28.25;;;22.10;32.40;;;;;;5045118;27;84496;-86
2021/04/17 12:48:51;;;;;;;152.60;136.32;;;22.50;31.70;;;;;;5041207;28;82570;-87
2021/04/17 12:51:16;;;;;;;98.47;87.55;;;22.60;30.80;;;;;;5041199;28;85144;-86
2021/04/17 12:53:42;;;;;;;135.75;121.75;;;22.50;30.70;;;;;;5043294;28;83333;-86
2021/04/17 12:56:08;;;;;;;91.45;82.97;;;21.40;32.00;;;;;;5047269;27;85065;-86
2021/04/17 12:58:38;;;;;;;353.70;244.13;;;21.20;32.50;;;;;;5037608;28;82538;-86
2021/04/17 13:01:04;;;;;;;46.00;38.00;;;20.00;33.20;;;;;;5044753;27;85252;-87
2021/04/17 13:03:29;;;;;;;21.30;19.20;;;20.00;33.60;;;;;;5045702;27;83833;-87
2021/04/17 13:05:55;;;;;;;16.25;14.65;;;19.20;35.20;;;;;;5041039;28;83487;-87
2021/04/17 13:08:23;;;;;;;15.80;14.38;;;18.50;37.90;;;;;;5033973;28;82625;-87
2021/04/17 13:10:49;;;;;;;16.13;14.60;;;17.40;37.80;;;;;;5045829;27;82555;-87
2021/04/17 13:13:15;;;;;;;16.38;14.68;;;17.50;38.40;;;;;;5047221;28;84308;-87
2021/04/17 13:15:41;;;;;;;16.20;14.68;;;16.70;39.50;;;;;;5040880;27;82542;-87
2021/04/17 13:18:07;;;;;;;12.60;11.38;;;16.40;39.70;;;;;;5041883;27;82626;-87
2021/04/17 13:20:33;;;;;;;14.57;13.18;;;16.20;40.60;;;;;;5044408;27;82742;-87
2021/04/17 13:22:59;;;;;;;15.48;13.90;;;16.00;41.00;;;;;;5047558;27;82616;-87
2021/04/17 13:25:25;;;;;;;16.33;14.82;;;;;;;;;;5044510;27;82365;-86
2021/04/17 13:27:50;;;;;;;15.85;14.27;;;15.10;42.10;;;;;;5047643;28;82068;-87
2021/04/17 13:30:17;;;;;;;15.68;14.25;;;14.60;42.40;;;;;;5042307;27;83615;-86
2021/04/17 13:32:43;;;;;;;15.23;13.73;;;15.00;42.60;;;;;;5044063;27;82836;-86
2021/04/17 13:35:10;;;;;;;16.23;14.57;;;14.50;43.60;;;;;;5037540;28;82729;-86
2021/04/17 13:37:36;;;;;;;14.73;13.30;;;14.10;43.70;;;;;;5046989;28;83297;-86
2021/04/17 13:40:02;;;;;;;13.10;11.70;;;14.40;44.00;;;;;;5048379;28;82512;-86
2021/04/17 13:42:27;;;;;;;12.55;10.90;;;14.20;45.00;;;;;;5049402;28;83239;-86
2021/04/17 13:44:53;;;;;;;14.30;13.00;;;13.70;44.90;;;;;;5047370;28;82943;-87
2021/04/17 13:47:19;;;;;;;13.02;11.63;;;13.80;44.70;;;;;;5048797;28;82774;-87
2021/04/17 13:49:45;;;;;;;13.77;12.48;;;;;;;;;;5048348;28;82684;-87
2021/04/17 13:52:10;;;;;;;14.10;12.80;;;13.00;45.90;;;;;;5042544;28;82500;-86
2021/04/17 13:54:38;;;;;;;14.07;12.20;;;;;;;;;;5048388;27;83516;-86
2021/04/17 13:57:11;;;;;;;13.88;12.48;;;13.10;45.50;;;;;;5050833;28;82770;-86
2021/04/17 13:59:36;;;;;;;13.75;12.35;;;12.60;47.50;;;;;;5043978;27;84844;-87
2021/04/17 14:02:03;;;;;;;13.80;12.57;;;12.40;47.50;;;;;;5024897;28;85710;-86
2021/04/17 14:04:29;;;;;;;13.02;11.73;;;;;;;;;;5049463;28;83763;-87
2021/04/17 14:06:55;;;;;;;13.30;11.93;;;;;;;;;;5046924;28;82565;-87
2021/04/17 14:09:22;;;;;;;13.88;12.40;;;12.30;48.00;;;;;;5050863;27;82797;-87
2021/04/17 14:11:48;;;;;;;13.13;11.90;;;;;;;;;;5050429;27;83943;-87
2021/04/17 14:14:14;;;;;;;13.82;12.52;;;;;;;;;;5070028;27;82360;-86
2021/04/17 14:16:41;;;;;;;18.63;16.73;;;;;;;;;;5070330;27;82506;-86
2021/04/17 14:19:07;;;;;;;14.80;13.43;;;;;;;;;;5066985;27;83327;-87
2021/04/17 14:21:33;;;;;;;13.50;12.30;;;12.10;51.00;;;;;;5070350;27;83259;-86
2021/04/17 14:23:59;;;;;;;13.98;12.57;;;;;;;;;;5058769;27;83259;-88
2021/04/17 14:26:25;;;;;;;12.27;11.18;;;;;;;;;;5052122;27;83498;-86
2021/04/17 14:28:51;;;;;;;11.05;9.18;;;11.80;50.60;;;;;;5070995;27;82531;-87
2021/04/17 14:31:17;;;;;;;10.48;9.38;;;11.80;51.20;;;;;;5070625;27;81837;-86
2021/04/17 14:33:43;;;;;;;10.88;9.52;;;11.80;51.50;;;;;;5070062;27;81780;-86
2021/04/17 14:36:09;;;;;;;12.80;10.63;;;11.20;53.10;;;;;;5074481;27;81139;-85
2021/04/17 14:38:37;;;;;;;12.30;11.10;;;11.30;53.20;;;;;;5068763;27;83370;-86
2021/04/17 14:41:02;;;;;;;13.32;9.98;;;11.50;52.40;;;;;;5069531;27;83825;-85
2021/04/17 14:43:30;;;;;;;12.57;11.32;;;;;;;;;;5067615;27;83253;-86
2021/04/17 14:45:56;;;;;;;11.75;10.57;;;;;;;;;;5055212;27;82020;-86
2021/04/17 14:48:22;;;;;;;10.63;9.23;;;11.30;52.70;;;;;;5043457;27;83892;-86
2021/04/17 14:50:49;;;;;;;13.57;12.27;;;;;;;;;;5050551;27;83722;-87
2021/04/17 14:53:15;;;;;;;9.68;8.60;;;11.20;51.60;;;;;;5059501;27;82399;-86
2021/04/17 14:55:41;;;;;;;13.32;11.65;;;;;;;;;;5070033;27;81907;-84
2021/04/17 14:58:08;;;;;;;24.48;16.55;;;11.20;51.80;;;;;;5072567;27;82673;-86
2021/04/17 15:00:35;;;;;;;13.57;12.25;;;11.10;52.50;;;;;;5072276;27;82689;-85
2021/04/17 15:03:02;;;;;;;19.40;15.05;;;;;;;;;;5072863;27;82578;-86
2021/04/17 15:05:28;;;;;;;23.08;14.57;;;11.00;51.80;;;;;;5072575;27;83142;-84
2021/04/17 15:07:55;;;;;;;22.90;15.90;;;11.00;52.50;;;;;;5070037;27;83428;-88
2021/04/17 15:10:21;;;;;;;47.55;25.98;;;;;;;;;;5066095;27;84318;-87
2021/04/17 15:12:48;;;;;;;54.33;28.40;;;11.00;53.60;;;;;;5035686;27;84032;-88
2021/04/17 15:15:14;;;;;;;40.45;21.80;;;;;;;;;;5054828;28;82730;-88
2021/04/17 15:17:43;;;;;;;47.78;24.45;;;11.00;52.40;;;;;;5050035;27;82926;-87
2021/04/17 15:20:09;;;;;;;27.75;15.25;;;11.00;52.90;;;;;;5045173;28;83483;-86
2021/04/17 15:22:40;;;;;;;35.80;24.27;;;10.90;53.30;;;;;;5040115;28;84004;-86
2021/04/17 15:25:08;;;;;;;13.60;12.23;;;10.80;53.50;;;;;;5042149;28;83150;-85
2021/04/17 15:27:34;;;;;;;13.32;11.88;;;10.80;53.70;;;;;;5054712;28;82557;-86
2021/04/17 15:30:06;;;;;;;11.85;10.55;;;11.10;54.00;;;;;;5030277;28;84535;-86
2021/04/17 15:32:37;;;;;;;12.63;11.40;;;10.80;53.60;;;;;;5032027;27;84477;-86
2021/04/17 15:35:06;;;;;;;12.20;11.02;;;11.10;54.30;;;;;;5033361;28;83694;-86
2021/04/17 15:37:32;;;;;;;9.93;8.98;;;11.00;54.50;;;;;;5048349;28;82663;-86
2021/04/17 15:39:58;;;;;;;12.55;11.35;;;;;;;;;;5048368;28;83739;-85
2021/04/17 15:42:24;;;;;;;12.93;11.07;;;11.40;54.50;;;;;;5053557;27;82485;-83
2021/04/17 15:44:50;;;;;;;11.57;10.48;;;10.90;54.10;;;;;;5030558;28;82808;-86
2021/04/17 15:47:16;;;;;;;12.60;11.30;;;11.20;54.30;;;;;;5048217;27;82737;-86